sensor_id;sensor_type;location;lat;lon;timestamp;pressure;altitude;pressure_sealevel;temperature
67822;BMP180;54434;50.096;20.082;2023-02-15T00:01:18;100540.40;;;3.70
67822;BMP180;54434;50.096;20.082;2023-02-15T00:03:55;100539.80;;;3.70
67822;BMP180;54434;50.096;20.082;2023-02-15T00:06:32;100539.80;;;3.70
67822;BMP180;54434;50.096;20.082;2023-02-15T00:09:09;100542.80;;;3.70
67822;BMP180;54434;50.096;20.082;2023-02-15T00:11:46;100535.00;;;3.70
67822;BMP180;54434;50.096;20.082;2023-02-15T00:14:27;100531.40;;;3.70
67822;BMP180;54434;50.096;20.082;2023-02-15T00:17:03;100536.00;;;3.70
67822;BMP180;54434;50.096;20.082;2023-02-15T00:19:40;100529.60;;;3.70
67822;BMP180;54434;50.096;20.082;2023-02-15T00:22:16;100532.00;;;3.70
67822;BMP180;54434;50.096;20.082;2023-02-15T00:24:52;100533.00;;;3.70
67822;BMP180;54434;50.096;20.082;2023-02-15T00:27:29;100532.80;;;3.70
67822;BMP180;54434;50.096;20.082;2023-02-15T00:30:07;100526.40;;;3.66
67822;BMP180;54434;50.096;20.082;2023-02-15T00:32:43;100522.60;;;3.60
67822;BMP180;54434;50.096;20.082;2023-02-15T00:35:20;100524.80;;;3.60
67822;BMP180;54434;50.096;20.082;2023-02-15T00:37:57;100523.40;;;3.60
67822;BMP180;54434;50.096;20.082;2023-02-15T00:40:33;100520.80;;;3.60
67822;BMP180;54434;50.096;20.082;2023-02-15T00:43:09;100519.40;;;3.60
67822;BMP180;54434;50.096;20.082;2023-02-15T00:45:51;100513.80;;;3.60
67822;BMP180;54434;50.096;20.082;2023-02-15T00:48:28;100513.80;;;3.60
67822;BMP180;54434;50.096;20.082;2023-02-15T00:51:04;100515.20;;;3.60
67822;BMP180;54434;50.096;20.082;2023-02-15T00:53:41;100510.80;;;3.60
67822;BMP180;54434;50.096;20.082;2023-02-15T00:56:17;100507.60;;;3.60
67822;BMP180;54434;50.096;20.082;2023-02-15T00:58:54;100503.40;;;3.60
67822;BMP180;54434;50.096;20.082;2023-02-15T01:01:30;100505.00;;;3.60
67822;BMP180;54434;50.096;20.082;2023-02-15T01:04:07;100507.80;;;3.58
67822;BMP180;54434;50.096;20.082;2023-02-15T01:06:44;100504.20;;;3.54
67822;BMP180;54434;50.096;20.082;2023-02-15T01:09:20;100499.20;;;3.60
67822;BMP180;54434;50.096;20.082;2023-02-15T01:11:57;100495.80;;;3.60
67822;BMP180;54434;50.096;20.082;2023-02-15T01:14:34;100485.60;;;3.60
67822;BMP180;54434;50.096;20.082;2023-02-15T01:17:12;100490.20;;;3.60
67822;BMP180;54434;50.096;20.082;2023-02-15T01:19:48;100486.40;;;3.54
67822;BMP180;54434;50.096;20.082;2023-02-15T01:22:26;100485.00;;;3.52
67822;BMP180;54434;50.096;20.082;2023-02-15T01:25:03;100484.20;;;3.50
67822;BMP180;54434;50.096;20.082;2023-02-15T01:27:39;100485.00;;;3.50
67822;BMP180;54434;50.096;20.082;2023-02-15T01:30:18;100482.00;;;3.50
67822;BMP180;54434;50.096;20.082;2023-02-15T01:32:55;100484.00;;;3.50
67822;BMP180;54434;50.096;20.082;2023-02-15T01:35:32;100482.00;;;3.50
67822;BMP180;54434;50.096;20.082;2023-02-15T01:38:09;100479.20;;;3.50
67822;BMP180;54434;50.096;20.082;2023-02-15T01:40:45;100477.80;;;3.50
67822;BMP180;54434;50.096;20.082;2023-02-15T01:43:27;100475.60;;;3.50
67822;BMP180;54434;50.096;20.082;2023-02-15T01:46:17;100472.20;;;3.50
67822;BMP180;54434;50.096;20.082;2023-02-15T01:49:04;100474.20;;;3.50
67822;BMP180;54434;50.096;20.082;2023-02-15T01:51:48;100478.00;;;3.50
67822;BMP180;54434;50.096;20.082;2023-02-15T01:54:32;100472.80;;;3.40
67822;BMP180;54434;50.096;20.082;2023-02-15T01:57:18;100470.20;;;3.40
67822;BMP180;54434;50.096;20.082;2023-02-15T02:00:00;100468.00;;;3.40
67822;BMP180;54434;50.096;20.082;2023-02-15T02:02:51;100465.40;;;3.40
67822;BMP180;54434;50.096;20.082;2023-02-15T02:05:33;100458.80;;;3.30
67822;BMP180;54434;50.096;20.082;2023-02-15T02:08:11;100451.20;;;3.30
67822;BMP180;54434;50.096;20.082;2023-02-15T02:10:48;100449.20;;;3.30
67822;BMP180;54434;50.096;20.082;2023-02-15T02:13:24;100442.80;;;3.30
67822;BMP180;54434;50.096;20.082;2023-02-15T02:16:09;100440.20;;;3.22
67822;BMP180;54434;50.096;20.082;2023-02-15T02:19:05;100438.40;;;3.20
67822;BMP180;54434;50.096;20.082;2023-02-15T02:30:33;100438.60;;;3.20
67822;BMP180;54434;50.096;20.082;2023-02-15T02:33:50;100435.20;;;3.10
67822;BMP180;54434;50.096;20.082;2023-02-15T02:36:41;100435.60;;;3.10
67822;BMP180;54434;50.096;20.082;2023-02-15T02:39:40;100436.80;;;3.10
67822;BMP180;54434;50.096;20.082;2023-02-15T02:42:29;100432.40;;;3.10
67822;BMP180;54434;50.096;20.082;2023-02-15T02:45:15;100425.60;;;3.10
67822;BMP180;54434;50.096;20.082;2023-02-15T02:47:59;100428.60;;;3.10
67822;BMP180;54434;50.096;20.082;2023-02-15T02:50:40;100428.40;;;3.10
67822;BMP180;54434;50.096;20.082;2023-02-15T02:53:16;100421.20;;;3.10
67822;BMP180;54434;50.096;20.082;2023-02-15T02:55:58;100424.60;;;3.10
67822;BMP180;54434;50.096;20.082;2023-02-15T02:58:44;100421.40;;;3.10
67822;BMP180;54434;50.096;20.082;2023-02-15T03:01:29;100424.40;;;3.10
67822;BMP180;54434;50.096;20.082;2023-02-15T03:04:12;100425.80;;;3.10
67822;BMP180;54434;50.096;20.082;2023-02-15T03:06:52;100421.00;;;3.10
67822;BMP180;54434;50.096;20.082;2023-02-15T03:09:35;100419.60;;;3.10
67822;BMP180;54434;50.096;20.082;2023-02-15T03:12:23;100420.20;;;3.10
67822;BMP180;54434;50.096;20.082;2023-02-15T03:15:08;100418.60;;;3.10
67822;BMP180;54434;50.096;20.082;2023-02-15T03:17:51;100415.20;;;3.10
67822;BMP180;54434;50.096;20.082;2023-02-15T03:20:35;100414.40;;;3.10
67822;BMP180;54434;50.096;20.082;2023-02-15T03:23:20;100411.00;;;3.10
67822;BMP180;54434;50.096;20.082;2023-02-15T03:26:05;100411.00;;;3.10
67822;BMP180;54434;50.096;20.082;2023-02-15T03:28:47;100408.20;;;3.10
67822;BMP180;54434;50.096;20.082;2023-02-15T03:31:30;100409.40;;;3.10
67822;BMP180;54434;50.096;20.082;2023-02-15T03:34:12;100411.00;;;3.10
67822;BMP180;54434;50.096;20.082;2023-02-15T03:36:58;100410.20;;;3.10
67822;BMP180;54434;50.096;20.082;2023-02-15T03:39:42;100402.00;;;3.10
67822;BMP180;54434;50.096;20.082;2023-02-15T03:42:28;100402.80;;;3.10
67822;BMP180;54434;50.096;20.082;2023-02-15T03:45:11;100400.40;;;3.08
67822;BMP180;54434;50.096;20.082;2023-02-15T03:47:54;100396.80;;;3.06
67822;BMP180;54434;50.096;20.082;2023-02-15T03:50:34;100395.20;;;3.00
67822;BMP180;54434;50.096;20.082;2023-02-15T03:53:29;100390.40;;;3.00
67822;BMP180;54434;50.096;20.082;2023-02-15T03:56:07;100390.60;;;2.90
67822;BMP180;54434;50.096;20.082;2023-02-15T03:58:43;100384.20;;;2.90
67822;BMP180;54434;50.096;20.082;2023-02-15T04:01:43;100392.80;;;2.90
67822;BMP180;54434;50.096;20.082;2023-02-15T04:04:45;100391.20;;;2.82
67822;BMP180;54434;50.096;20.082;2023-02-15T04:07:22;100390.00;;;2.80
67822;BMP180;54434;50.096;20.082;2023-02-15T04:09:58;100394.20;;;2.80
67822;BMP180;54434;50.096;20.082;2023-02-15T04:12:52;100393.20;;;2.80
67822;BMP180;54434;50.096;20.082;2023-02-15T04:15:28;100395.00;;;2.80
67822;BMP180;54434;50.096;20.082;2023-02-15T04:18:23;100395.00;;;2.80
67822;BMP180;54434;50.096;20.082;2023-02-15T04:21:17;100391.60;;;2.80
67822;BMP180;54434;50.096;20.082;2023-02-15T04:24:12;100391.40;;;2.80
67822;BMP180;54434;50.096;20.082;2023-02-15T04:27:07;100393.20;;;2.80
67822;BMP180;54434;50.096;20.082;2023-02-15T04:29:43;100392.60;;;2.80
67822;BMP180;54434;50.096;20.082;2023-02-15T04:32:20;100391.60;;;2.80
67822;BMP180;54434;50.096;20.082;2023-02-15T04:34:56;100394.20;;;2.80
67822;BMP180;54434;50.096;20.082;2023-02-15T04:37:33;100389.20;;;2.80
67822;BMP180;54434;50.096;20.082;2023-02-15T04:40:13;100390.00;;;2.80
67822;BMP180;54434;50.096;20.082;2023-02-15T04:42:53;100387.00;;;2.80
67822;BMP180;54434;50.096;20.082;2023-02-15T04:45:29;100388.20;;;2.80
67822;BMP180;54434;50.096;20.082;2023-02-15T04:48:07;100385.20;;;2.80
67822;BMP180;54434;50.096;20.082;2023-02-15T04:50:43;100383.60;;;2.80
67822;BMP180;54434;50.096;20.082;2023-02-15T04:53:20;100382.80;;;2.80
67822;BMP180;54434;50.096;20.082;2023-02-15T04:55:56;100385.20;;;2.80
67822;BMP180;54434;50.096;20.082;2023-02-15T04:58:33;100382.60;;;2.80
67822;BMP180;54434;50.096;20.082;2023-02-15T05:01:10;100383.20;;;2.80
67822;BMP180;54434;50.096;20.082;2023-02-15T05:03:47;100379.40;;;2.80
67822;BMP180;54434;50.096;20.082;2023-02-15T05:06:24;100382.20;;;2.80
67822;BMP180;54434;50.096;20.082;2023-02-15T05:09:00;100387.40;;;2.80
67822;BMP180;54434;50.096;20.082;2023-02-15T05:11:37;100389.20;;;2.80
67822;BMP180;54434;50.096;20.082;2023-02-15T05:14:13;100390.40;;;2.76
67822;BMP180;54434;50.096;20.082;2023-02-15T05:16:49;100392.60;;;2.78
67822;BMP180;54434;50.096;20.082;2023-02-15T05:19:26;100393.40;;;2.74
67822;BMP180;54434;50.096;20.082;2023-02-15T05:22:02;100394.00;;;2.70
67822;BMP180;54434;50.096;20.082;2023-02-15T05:24:38;100394.80;;;2.70
67822;BMP180;54434;50.096;20.082;2023-02-15T05:27:32;100398.00;;;2.70
67822;BMP180;54434;50.096;20.082;2023-02-15T05:30:27;100399.60;;;2.70
67822;BMP180;54434;50.096;20.082;2023-02-15T05:33:04;100398.00;;;2.70
67822;BMP180;54434;50.096;20.082;2023-02-15T05:35:41;100398.00;;;2.70
67822;BMP180;54434;50.096;20.082;2023-02-15T05:38:17;100397.20;;;2.70
67822;BMP180;54434;50.096;20.082;2023-02-15T05:40:55;100396.80;;;2.70
67822;BMP180;54434;50.096;20.082;2023-02-15T05:43:31;100400.20;;;2.70
67822;BMP180;54434;50.096;20.082;2023-02-15T05:46:09;100398.40;;;2.70
67822;BMP180;54434;50.096;20.082;2023-02-15T05:48:46;100397.80;;;2.70
67822;BMP180;54434;50.096;20.082;2023-02-15T05:51:22;100400.80;;;2.70
67822;BMP180;54434;50.096;20.082;2023-02-15T05:53:59;100397.40;;;2.66
67822;BMP180;54434;50.096;20.082;2023-02-15T05:56:35;100400.80;;;2.64
67822;BMP180;54434;50.096;20.082;2023-02-15T05:59:11;100404.60;;;2.70
67822;BMP180;54434;50.096;20.082;2023-02-15T06:01:48;100404.60;;;2.66
67822;BMP180;54434;50.096;20.082;2023-02-15T06:04:24;100408.80;;;2.70
67822;BMP180;54434;50.096;20.082;2023-02-15T06:07:01;100404.20;;;2.70
67822;BMP180;54434;50.096;20.082;2023-02-15T06:09:37;100403.80;;;2.70
67822;BMP180;54434;50.096;20.082;2023-02-15T06:12:13;100402.40;;;2.70
67822;BMP180;54434;50.096;20.082;2023-02-15T06:14:50;100400.00;;;2.72
67822;BMP180;54434;50.096;20.082;2023-02-15T06:17:26;100399.60;;;2.70
67822;BMP180;54434;50.096;20.082;2023-02-15T06:20:05;100397.40;;;2.72
67822;BMP180;54434;50.096;20.082;2023-02-15T06:22:41;100401.40;;;2.80
67822;BMP180;54434;50.096;20.082;2023-02-15T06:25:19;100402.00;;;2.80
67822;BMP180;54434;50.096;20.082;2023-02-15T06:27:55;100399.20;;;2.80
67822;BMP180;54434;50.096;20.082;2023-02-15T06:30:32;100405.20;;;2.70
67822;BMP180;54434;50.096;20.082;2023-02-15T06:33:09;100405.20;;;2.70
67822;BMP180;54434;50.096;20.082;2023-02-15T06:35:45;100403.00;;;2.70
67822;BMP180;54434;50.096;20.082;2023-02-15T06:38:22;100409.40;;;2.70
67822;BMP180;54434;50.096;20.082;2023-02-15T06:40:58;100411.20;;;2.70
67822;BMP180;54434;50.096;20.082;2023-02-15T06:43:35;100408.60;;;2.70
67822;BMP180;54434;50.096;20.082;2023-02-15T06:46:14;100409.60;;;2.70
67822;BMP180;54434;50.096;20.082;2023-02-15T06:48:51;100408.00;;;2.70
67822;BMP180;54434;50.096;20.082;2023-02-15T06:51:27;100405.20;;;2.72
67822;BMP180;54434;50.096;20.082;2023-02-15T06:54:04;100405.00;;;2.80
67822;BMP180;54434;50.096;20.082;2023-02-15T06:56:40;100406.40;;;2.80
67822;BMP180;54434;50.096;20.082;2023-02-15T06:59:17;100412.20;;;2.80
67822;BMP180;54434;50.096;20.082;2023-02-15T07:01:53;100410.80;;;2.80
67822;BMP180;54434;50.096;20.082;2023-02-15T07:04:30;100411.80;;;2.80
67822;BMP180;54434;50.096;20.082;2023-02-15T07:07:09;100406.80;;;2.80
67822;BMP180;54434;50.096;20.082;2023-02-15T07:09:46;100405.40;;;2.80
67822;BMP180;54434;50.096;20.082;2023-02-15T07:12:22;100400.20;;;2.80
67822;BMP180;54434;50.096;20.082;2023-02-15T07:15:20;100399.60;;;2.80
67822;BMP180;54434;50.096;20.082;2023-02-15T07:17:58;100393.80;;;2.90
67822;BMP180;54434;50.096;20.082;2023-02-15T07:20:35;100397.40;;;2.90
67822;BMP180;54434;50.096;20.082;2023-02-15T07:23:11;100395.80;;;2.90
67822;BMP180;54434;50.096;20.082;2023-02-15T07:25:48;100391.20;;;3.00
67822;BMP180;54434;50.096;20.082;2023-02-15T07:28:24;100394.20;;;3.00
67822;BMP180;54434;50.096;20.082;2023-02-15T07:31:02;100395.40;;;3.00
67822;BMP180;54434;50.096;20.082;2023-02-15T07:33:39;100393.40;;;3.06
67822;BMP180;54434;50.096;20.082;2023-02-15T07:36:15;100392.60;;;3.10
67822;BMP180;54434;50.096;20.082;2023-02-15T07:38:51;100387.80;;;3.08
67822;BMP180;54434;50.096;20.082;2023-02-15T07:41:28;100389.80;;;3.10
67822;BMP180;54434;50.096;20.082;2023-02-15T07:44:04;100389.00;;;3.10
67822;BMP180;54434;50.096;20.082;2023-02-15T07:46:41;100386.20;;;3.10
67822;BMP180;54434;50.096;20.082;2023-02-15T07:49:18;100389.20;;;3.10
67822;BMP180;54434;50.096;20.082;2023-02-15T07:51:54;100388.80;;;3.10
67822;BMP180;54434;50.096;20.082;2023-02-15T07:54:31;100387.20;;;3.20
67822;BMP180;54434;50.096;20.082;2023-02-15T07:57:08;100384.60;;;3.20
67822;BMP180;54434;50.096;20.082;2023-02-15T07:59:44;100384.00;;;3.30
67822;BMP180;54434;50.096;20.082;2023-02-15T08:02:21;100386.80;;;3.30
67822;BMP180;54434;50.096;20.082;2023-02-15T08:04:57;100384.20;;;3.30
67822;BMP180;54434;50.096;20.082;2023-02-15T08:07:34;100382.60;;;3.34
67822;BMP180;54434;50.096;20.082;2023-02-15T08:10:12;100383.00;;;3.40
67822;BMP180;54434;50.096;20.082;2023-02-15T08:13:08;100378.40;;;3.40
67822;BMP180;54434;50.096;20.082;2023-02-15T08:15:51;100376.60;;;3.40
67822;BMP180;54434;50.096;20.082;2023-02-15T08:18:27;100380.60;;;3.40
67822;BMP180;54434;50.096;20.082;2023-02-15T08:21:04;100379.20;;;3.42
67822;BMP180;54434;50.096;20.082;2023-02-15T08:23:41;100377.80;;;3.50
67822;BMP180;54434;50.096;20.082;2023-02-15T08:26:17;100368.60;;;3.54
67822;BMP180;54434;50.096;20.082;2023-02-15T08:28:54;100366.80;;;3.60
67822;BMP180;54434;50.096;20.082;2023-02-15T08:31:31;100366.20;;;3.70
67822;BMP180;54434;50.096;20.082;2023-02-15T08:34:08;100366.00;;;3.80
67822;BMP180;54434;50.096;20.082;2023-02-15T08:36:46;100362.80;;;3.90
67822;BMP180;54434;50.096;20.082;2023-02-15T08:39:23;100366.00;;;3.98
67822;BMP180;54434;50.096;20.082;2023-02-15T08:42:02;100364.40;;;4.00
67822;BMP180;54434;50.096;20.082;2023-02-15T08:44:39;100363.00;;;4.10
67822;BMP180;54434;50.096;20.082;2023-02-15T08:47:15;100362.80;;;4.10
67822;BMP180;54434;50.096;20.082;2023-02-15T08:49:52;100362.80;;;4.10
67822;BMP180;54434;50.096;20.082;2023-02-15T08:52:29;100360.40;;;4.20
67822;BMP180;54434;50.096;20.082;2023-02-15T08:55:06;100356.00;;;4.30
67822;BMP180;54434;50.096;20.082;2023-02-15T08:57:43;100349.60;;;4.40
67822;BMP180;54434;50.096;20.082;2023-02-15T09:00:23;100352.00;;;4.50
67822;BMP180;54434;50.096;20.082;2023-02-15T09:02:59;100349.40;;;4.54
67822;BMP180;54434;50.096;20.082;2023-02-15T09:05:36;100348.00;;;4.60
67822;BMP180;54434;50.096;20.082;2023-02-15T09:08:13;100350.40;;;4.70
67822;BMP180;54434;50.096;20.082;2023-02-15T09:10:49;100349.20;;;4.78
67822;BMP180;54434;50.096;20.082;2023-02-15T09:13:25;100345.60;;;4.80
67822;BMP180;54434;50.096;20.082;2023-02-15T09:16:08;100343.40;;;4.80
67822;BMP180;54434;50.096;20.082;2023-02-15T09:18:45;100346.40;;;4.86
67822;BMP180;54434;50.096;20.082;2023-02-15T09:21:24;100346.20;;;5.00
67822;BMP180;54434;50.096;20.082;2023-02-15T09:24:06;100348.00;;;5.10
67822;BMP180;54434;50.096;20.082;2023-02-15T09:26:47;100348.00;;;5.20
67822;BMP180;54434;50.096;20.082;2023-02-15T09:29:24;100342.60;;;5.40
67822;BMP180;54434;50.096;20.082;2023-02-15T09:32:00;100344.60;;;5.42
67822;BMP180;54434;50.096;20.082;2023-02-15T09:34:37;100339.60;;;5.50
67822;BMP180;54434;50.096;20.082;2023-02-15T09:37:13;100338.20;;;5.60
67822;BMP180;54434;50.096;20.082;2023-02-15T09:39:49;100340.00;;;5.70
67822;BMP180;54434;50.096;20.082;2023-02-15T09:42:53;100341.20;;;5.80
67822;BMP180;54434;50.096;20.082;2023-02-15T09:46:02;100340.00;;;5.90
67822;BMP180;54434;50.096;20.082;2023-02-15T09:48:50;100333.00;;;5.90
67822;BMP180;54434;50.096;20.082;2023-02-15T09:52:24;100333.00;;;5.92
67822;BMP180;54434;50.096;20.082;2023-02-15T09:55:23;100329.60;;;6.00
67822;BMP180;54434;50.096;20.082;2023-02-15T09:58:14;100320.00;;;6.10
67822;BMP180;54434;50.096;20.082;2023-02-15T10:01:03;100317.00;;;6.10
67822;BMP180;54434;50.096;20.082;2023-02-15T10:04:18;100309.80;;;6.10
67822;BMP180;54434;50.096;20.082;2023-02-15T10:07:08;100308.80;;;6.10
67822;BMP180;54434;50.096;20.082;2023-02-15T10:10:05;100304.00;;;6.20
67822;BMP180;54434;50.096;20.082;2023-02-15T10:13:12;100295.80;;;6.20
67822;BMP180;54434;50.096;20.082;2023-02-15T10:16:13;100292.80;;;6.18
67822;BMP180;54434;50.096;20.082;2023-02-15T10:19:03;100292.20;;;6.10
67822;BMP180;54434;50.096;20.082;2023-02-15T10:21:59;100288.80;;;6.10
67822;BMP180;54434;50.096;20.082;2023-02-15T10:25:10;100282.00;;;6.02
67822;BMP180;54434;50.096;20.082;2023-02-15T10:27:51;100282.80;;;6.10
67822;BMP180;54434;50.096;20.082;2023-02-15T10:30:36;100279.60;;;6.00
67822;BMP180;54434;50.096;20.082;2023-02-15T10:33:39;100273.60;;;6.00
67822;BMP180;54434;50.096;20.082;2023-02-15T10:36:42;100274.80;;;6.00
67822;BMP180;54434;50.096;20.082;2023-02-15T10:39:33;100273.80;;;6.00
67822;BMP180;54434;50.096;20.082;2023-02-15T10:42:26;100273.20;;;6.00
67822;BMP180;54434;50.096;20.082;2023-02-15T10:45:19;100267.00;;;6.00
67822;BMP180;54434;50.096;20.082;2023-02-15T10:48:21;100264.80;;;6.00
67822;BMP180;54434;50.096;20.082;2023-02-15T10:51:01;100267.20;;;6.00
67822;BMP180;54434;50.096;20.082;2023-02-15T10:54:03;100259.80;;;6.00
67822;BMP180;54434;50.096;20.082;2023-02-15T10:56:52;100260.40;;;6.00
67822;BMP180;54434;50.096;20.082;2023-02-15T10:59:56;100258.60;;;6.00
67822;BMP180;54434;50.096;20.082;2023-02-15T11:02:52;100254.60;;;6.10
67822;BMP180;54434;50.096;20.082;2023-02-15T11:05:48;100245.00;;;6.06
67822;BMP180;54434;50.096;20.082;2023-02-15T11:08:34;100233.20;;;6.10
67822;BMP180;54434;50.096;20.082;2023-02-15T11:11:19;100230.60;;;6.16
67822;BMP180;54434;50.096;20.082;2023-02-15T11:14:03;100224.80;;;6.20
67822;BMP180;54434;50.096;20.082;2023-02-15T11:16:49;100227.80;;;6.20
67822;BMP180;54434;50.096;20.082;2023-02-15T11:19:33;100221.20;;;6.20
67822;BMP180;54434;50.096;20.082;2023-02-15T11:22:13;100223.60;;;6.20
67822;BMP180;54434;50.096;20.082;2023-02-15T11:24:53;100225.00;;;6.22
67822;BMP180;54434;50.096;20.082;2023-02-15T11:27:34;100221.20;;;6.20
67822;BMP180;54434;50.096;20.082;2023-02-15T11:30:21;100212.20;;;6.20
67822;BMP180;54434;50.096;20.082;2023-02-15T11:33:03;100214.40;;;6.30
67822;BMP180;54434;50.096;20.082;2023-02-15T11:35:52;100213.40;;;6.30
67822;BMP180;54434;50.096;20.082;2023-02-15T11:38:33;100203.80;;;6.34
67822;BMP180;54434;50.096;20.082;2023-02-15T11:41:13;100198.00;;;6.36
67822;BMP180;54434;50.096;20.082;2023-02-15T11:43:59;100194.40;;;6.40
67822;BMP180;54434;50.096;20.082;2023-02-15T11:46:41;100193.60;;;6.40
67822;BMP180;54434;50.096;20.082;2023-02-15T11:49:33;100195.80;;;6.46
67822;BMP180;54434;50.096;20.082;2023-02-15T11:52:16;100190.60;;;6.50
67822;BMP180;54434;50.096;20.082;2023-02-15T11:54:54;100186.40;;;6.50
67822;BMP180;54434;50.096;20.082;2023-02-15T11:57:39;100190.00;;;6.60
67822;BMP180;54434;50.096;20.082;2023-02-15T12:00:30;100182.20;;;6.60
67822;BMP180;54434;50.096;20.082;2023-02-15T12:03:24;100180.80;;;6.70
67822;BMP180;54434;50.096;20.082;2023-02-15T12:06:11;100175.20;;;6.70
67822;BMP180;54434;50.096;20.082;2023-02-15T12:08:58;100177.00;;;6.80
67822;BMP180;54434;50.096;20.082;2023-02-15T12:11:43;100166.20;;;6.80
67822;BMP180;54434;50.096;20.082;2023-02-15T12:14:19;100163.80;;;6.80
67822;BMP180;54434;50.096;20.082;2023-02-15T12:16:58;100156.60;;;6.90
67822;BMP180;54434;50.096;20.082;2023-02-15T12:19:39;100152.20;;;6.90
67822;BMP180;54434;50.096;20.082;2023-02-15T12:22:27;100146.60;;;6.90
67822;BMP180;54434;50.096;20.082;2023-02-15T12:25:22;100145.40;;;7.00
67822;BMP180;54434;50.096;20.082;2023-02-15T12:27:59;100145.00;;;7.00
67822;BMP180;54434;50.096;20.082;2023-02-15T12:30:39;100141.60;;;7.10
67822;BMP180;54434;50.096;20.082;2023-02-15T12:33:30;100144.40;;;7.10
67822;BMP180;54434;50.096;20.082;2023-02-15T12:36:22;100142.80;;;7.10
67822;BMP180;54434;50.096;20.082;2023-02-15T12:39:26;100141.20;;;7.10
67822;BMP180;54434;50.096;20.082;2023-02-15T12:42:16;100140.00;;;7.10
67822;BMP180;54434;50.096;20.082;2023-02-15T12:45:20;100135.60;;;7.10
67822;BMP180;54434;50.096;20.082;2023-02-15T12:48:16;100131.60;;;7.10
67822;BMP180;54434;50.096;20.082;2023-02-15T12:51:08;100130.40;;;7.10
67822;BMP180;54434;50.096;20.082;2023-02-15T12:53:45;100127.80;;;7.20
67822;BMP180;54434;50.096;20.082;2023-02-15T12:56:29;100123.00;;;7.18
67822;BMP180;54434;50.096;20.082;2023-02-15T12:59:14;100126.40;;;7.20
67822;BMP180;54434;50.096;20.082;2023-02-15T13:01:57;100121.40;;;7.20
67822;BMP180;54434;50.096;20.082;2023-02-15T13:04:38;100116.80;;;7.20
67822;BMP180;54434;50.096;20.082;2023-02-15T13:07:29;100113.40;;;7.20
67822;BMP180;54434;50.096;20.082;2023-02-15T13:10:21;100110.60;;;7.20
67822;BMP180;54434;50.096;20.082;2023-02-15T13:12:59;100103.60;;;7.22
67822;BMP180;54434;50.096;20.082;2023-02-15T13:15:42;100106.20;;;7.30
67822;BMP180;54434;50.096;20.082;2023-02-15T13:18:32;100102.60;;;7.30
67822;BMP180;54434;50.096;20.082;2023-02-15T13:21:18;100099.00;;;7.32
67822;BMP180;54434;50.096;20.082;2023-02-15T13:24:01;100099.40;;;7.40
67822;BMP180;54434;50.096;20.082;2023-02-15T13:26:39;100101.20;;;7.40
67822;BMP180;54434;50.096;20.082;2023-02-15T13:29:27;100097.40;;;7.40
67822;BMP180;54434;50.096;20.082;2023-02-15T13:32:15;100096.00;;;7.40
67822;BMP180;54434;50.096;20.082;2023-02-15T13:35:01;100090.60;;;7.40
67822;BMP180;54434;50.096;20.082;2023-02-15T13:41:09;100083.40;;;7.40
67822;BMP180;54434;50.096;20.082;2023-02-15T13:44:02;100081.00;;;7.40
67822;BMP180;54434;50.096;20.082;2023-02-15T13:47:04;100080.60;;;7.40
67822;BMP180;54434;50.096;20.082;2023-02-15T13:50:01;100082.20;;;7.40
67822;BMP180;54434;50.096;20.082;2023-02-15T13:52:54;100075.80;;;7.40
67822;BMP180;54434;50.096;20.082;2023-02-15T13:55:43;100070.00;;;7.40
67822;BMP180;54434;50.096;20.082;2023-02-15T14:01:42;100077.00;;;7.40
67822;BMP180;54434;50.096;20.082;2023-02-15T14:04:54;100068.40;;;7.40
67822;BMP180;54434;50.096;20.082;2023-02-15T14:07:53;100067.60;;;7.40
67822;BMP180;54434;50.096;20.082;2023-02-15T14:10:53;100069.80;;;7.40
67822;BMP180;54434;50.096;20.082;2023-02-15T14:14:09;100067.40;;;7.40
67822;BMP180;54434;50.096;20.082;2023-02-15T14:16:57;100062.20;;;7.40
67822;BMP180;54434;50.096;20.082;2023-02-15T14:19:50;100056.60;;;7.40
67822;BMP180;54434;50.096;20.082;2023-02-15T14:22:38;100055.40;;;7.40
67822;BMP180;54434;50.096;20.082;2023-02-15T14:25:31;100051.80;;;7.40
67822;BMP180;54434;50.096;20.082;2023-02-15T14:28:19;100048.40;;;7.34
67822;BMP180;54434;50.096;20.082;2023-02-15T14:30:59;100050.60;;;7.30
67822;BMP180;54434;50.096;20.082;2023-02-15T14:33:43;100046.00;;;7.30
67822;BMP180;54434;50.096;20.082;2023-02-15T14:36:24;100043.40;;;7.30
67822;BMP180;54434;50.096;20.082;2023-02-15T14:39:18;100043.20;;;7.30
67822;BMP180;54434;50.096;20.082;2023-02-15T14:42:28;100039.60;;;7.28
67822;BMP180;54434;50.096;20.082;2023-02-15T14:45:21;100036.60;;;7.30
67822;BMP180;54434;50.096;20.082;2023-02-15T14:48:11;100037.80;;;7.20
67822;BMP180;54434;50.096;20.082;2023-02-15T14:50:50;100035.60;;;7.20
67822;BMP180;54434;50.096;20.082;2023-02-15T14:53:43;100034.80;;;7.20
67822;BMP180;54434;50.096;20.082;2023-02-15T14:56:31;100031.20;;;7.12
67822;BMP180;54434;50.096;20.082;2023-02-15T14:59:25;100032.40;;;7.10
67822;BMP180;54434;50.096;20.082;2023-02-15T15:02:15;100030.60;;;7.10
67822;BMP180;54434;50.096;20.082;2023-02-15T15:05:09;100034.80;;;7.00
67822;BMP180;54434;50.096;20.082;2023-02-15T15:07:51;100030.80;;;7.00
67822;BMP180;54434;50.096;20.082;2023-02-15T15:10:47;100028.20;;;6.96
67822;BMP180;54434;50.096;20.082;2023-02-15T15:14:01;100025.60;;;6.90
67822;BMP180;54434;50.096;20.082;2023-02-15T15:16:55;100018.60;;;6.90
67822;BMP180;54434;50.096;20.082;2023-02-15T15:20:03;100018.20;;;6.80
67822;BMP180;54434;50.096;20.082;2023-02-15T15:22:44;100017.40;;;6.80
67822;BMP180;54434;50.096;20.082;2023-02-15T15:25:47;100011.60;;;6.70
67822;BMP180;54434;50.096;20.082;2023-02-15T15:29:00;100011.80;;;6.70
67822;BMP180;54434;50.096;20.082;2023-02-15T15:31:52;100009.20;;;6.60
67822;BMP180;54434;50.096;20.082;2023-02-15T15:35:11;100011.00;;;6.50
67822;BMP180;54434;50.096;20.082;2023-02-15T15:38:29;100012.20;;;6.40
67822;BMP180;54434;50.096;20.082;2023-02-15T15:41:55;100006.00;;;6.30
67822;BMP180;54434;50.096;20.082;2023-02-15T15:48:33;99999.40;;;6.10
67822;BMP180;54434;50.096;20.082;2023-02-15T15:51:19;99998.00;;;6.00